createdAt,value
2018-07-08T00:00:44.467Z,1.50
2018-07-08T00:01:44.468Z,1.80
2018-07-08T00:02:44.471Z,1.60
2018-07-08T00:03:44.470Z,1.80
2018-07-08T00:04:44.468Z,1.90
2018-07-08T00:05:44.470Z,2.00
2018-07-08T00:06:44.472Z,1.30
2018-07-08T00:07:44.471Z,2.00
2018-07-08T00:08:44.473Z,1.90
2018-07-08T00:09:44.470Z,1.40
2018-07-08T00:10:44.473Z,1.50
2018-07-08T00:11:44.473Z,1.90
2018-07-08T00:12:44.473Z,2.10
2018-07-08T00:13:44.471Z,1.40
2018-07-08T00:14:44.476Z,1.50
2018-07-08T00:15:44.473Z,1.60
2018-07-08T00:16:44.471Z,1.90
2018-07-08T00:17:44.474Z,1.80
2018-07-08T00:18:44.473Z,2.00
2018-07-08T00:19:44.475Z,1.70
2018-07-08T00:20:44.472Z,2.00
2018-07-08T00:21:44.473Z,1.80
2018-07-08T00:22:44.473Z,1.50
2018-07-08T00:23:44.476Z,1.60
2018-07-08T00:24:44.473Z,1.70
2018-07-08T00:25:44.473Z,1.60
2018-07-08T00:26:44.475Z,2.00
2018-07-08T00:27:44.479Z,1.80
2018-07-08T00:28:44.473Z,1.50
2018-07-08T00:29:44.474Z,3.20
2018-07-08T00:30:44.474Z,1.90
2018-07-08T00:31:44.474Z,1.90
2018-07-08T00:32:44.472Z,1.90
2018-07-08T00:33:44.474Z,1.60
2018-07-08T00:34:44.475Z,2.50
2018-07-08T00:35:44.474Z,1.80
2018-07-08T00:36:44.472Z,1.90
2018-07-08T00:37:44.474Z,1.70
2018-07-08T00:38:44.472Z,1.60
2018-07-08T00:39:44.499Z,1.90
2018-07-08T00:40:44.477Z,1.70
2018-07-08T00:41:44.472Z,1.90
2018-07-08T00:42:44.473Z,1.90
2018-07-08T00:43:44.472Z,2.10
2018-07-08T00:44:44.472Z,2.20
2018-07-08T00:45:44.471Z,1.90
2018-07-08T00:46:44.473Z,2.60
2018-07-08T00:47:44.474Z,2.00
2018-07-08T00:48:44.472Z,2.10
2018-07-08T00:49:44.471Z,2.20
2018-07-08T00:50:44.473Z,1.70
2018-07-08T00:51:44.471Z,1.70
2018-07-08T00:52:44.471Z,1.40
2018-07-08T00:53:44.471Z,2.30
2018-07-08T00:54:44.470Z,1.80
2018-07-08T00:55:44.475Z,2.00
2018-07-08T00:56:44.471Z,2.00
2018-07-08T00:57:44.469Z,1.60
2018-07-08T00:58:44.470Z,2.20
2018-07-08T00:59:44.468Z,1.60
2018-07-08T01:00:44.470Z,2.30
2018-07-08T01:01:44.533Z,2.00
2018-07-08T01:02:44.468Z,1.90
2018-07-08T01:03:44.468Z,1.80
2018-07-08T01:04:44.471Z,2.10
2018-07-08T01:05:44.467Z,1.90
2018-07-08T01:06:44.468Z,2.00
2018-07-08T01:07:44.467Z,2.20
2018-07-08T01:08:44.471Z,1.80
2018-07-08T01:09:44.466Z,1.80
2018-07-08T01:10:44.469Z,1.90
2018-07-08T01:11:44.466Z,2.20
2018-07-08T01:12:44.467Z,2.20
2018-07-08T01:13:44.463Z,2.30
2018-07-08T01:14:44.464Z,2.40
2018-07-08T01:15:44.463Z,2.80
2018-07-08T01:16:44.462Z,2.00
2018-07-08T01:17:44.463Z,2.10
2018-07-08T01:18:44.462Z,2.40
2018-07-08T01:19:44.463Z,2.30
2018-07-08T01:20:44.461Z,2.60
2018-07-08T01:21:44.461Z,2.10
2018-07-08T01:22:44.461Z,2.00
2018-07-08T01:23:44.460Z,1.70
2018-07-08T01:24:44.459Z,2.20
2018-07-08T01:25:44.459Z,2.30
2018-07-08T01:26:44.458Z,2.70
2018-07-08T01:27:44.463Z,2.20
2018-07-08T01:28:44.458Z,2.20
2018-07-08T01:29:44.457Z,2.40
2018-07-08T01:30:44.459Z,1.80
2018-07-08T01:31:44.457Z,2.20
2018-07-08T01:32:44.455Z,2.20
2018-07-08T01:33:44.455Z,2.50
2018-07-08T01:34:44.455Z,2.70
2018-07-08T01:35:44.454Z,2.40
2018-07-08T01:36:44.453Z,2.60
2018-07-08T01:37:44.452Z,2.60
2018-07-08T01:38:44.453Z,2.70
2018-07-08T01:39:44.455Z,2.50
2018-07-08T01:40:44.451Z,2.50
2018-07-08T01:41:44.451Z,2.10
2018-07-08T01:42:44.450Z,2.30
2018-07-08T01:43:44.450Z,2.80
2018-07-08T01:44:44.449Z,2.90
2018-07-08T01:45:44.449Z,2.30
2018-07-08T01:46:44.449Z,2.50
2018-07-08T01:47:44.448Z,2.20
2018-07-08T01:48:44.446Z,3.50
2018-07-08T01:49:44.445Z,2.50
2018-07-08T01:50:44.445Z,2.40
2018-07-08T01:51:44.444Z,3.00
2018-07-08T01:52:44.443Z,2.80
2018-07-08T01:53:44.443Z,2.80
2018-07-08T01:54:44.442Z,2.70
2018-07-08T01:55:44.442Z,2.80
2018-07-08T01:56:44.440Z,3.00
2018-07-08T01:57:44.438Z,2.40
2018-07-08T01:58:44.439Z,2.80
2018-07-08T01:59:44.439Z,3.10
2018-07-08T02:00:44.436Z,2.60
2018-07-08T02:01:44.437Z,3.50
2018-07-08T02:02:44.436Z,2.80
2018-07-08T02:03:44.437Z,3.20
2018-07-08T02:04:44.434Z,2.30
2018-07-08T02:05:44.434Z,2.40
2018-07-08T02:06:44.433Z,2.20
2018-07-08T02:07:44.434Z,2.60
2018-07-08T02:08:44.431Z,2.90
2018-07-08T02:09:44.431Z,2.90
2018-07-08T02:10:44.431Z,2.60
2018-07-08T02:11:44.429Z,3.10
2018-07-08T02:12:44.428Z,2.70
2018-07-08T02:13:44.428Z,2.80
2018-07-08T02:14:44.427Z,3.20
2018-07-08T02:15:44.428Z,2.80
2018-07-08T02:16:44.423Z,2.60
2018-07-08T02:17:44.423Z,2.90
2018-07-08T02:18:44.426Z,2.50
2018-07-08T02:19:44.422Z,3.10
2018-07-08T02:20:44.421Z,3.00
2018-07-08T02:21:44.422Z,2.40
2018-07-08T02:22:44.421Z,3.20
2018-07-08T02:23:44.419Z,3.10
2018-07-08T02:24:44.417Z,3.20
2018-07-08T02:25:44.417Z,3.00
2018-07-08T02:26:44.417Z,3.40
2018-07-08T02:27:44.415Z,3.30
2018-07-08T02:28:44.413Z,2.90
2018-07-08T02:29:44.415Z,3.10
2018-07-08T02:30:44.414Z,2.70
2018-07-08T02:31:44.412Z,3.10
2018-07-08T02:32:44.410Z,3.00
2018-07-08T02:33:44.411Z,3.30
2018-07-08T02:34:44.413Z,3.60
2018-07-08T02:35:44.409Z,3.50
2018-07-08T02:36:44.406Z,3.60
2018-07-08T02:37:44.406Z,3.40
2018-07-08T02:38:44.405Z,2.90
2018-07-08T02:39:44.405Z,3.60
2018-07-08T02:40:44.403Z,3.20
2018-07-08T02:41:44.401Z,3.40
2018-07-08T02:42:44.401Z,3.70
2018-07-08T02:43:44.401Z,3.20
2018-07-08T02:44:44.399Z,3.50
2018-07-08T02:45:44.399Z,2.70
2018-07-08T02:46:44.398Z,3.60
2018-07-08T02:47:44.396Z,2.90
2018-07-08T02:48:44.400Z,2.80
2018-07-08T02:49:44.393Z,3.60
2018-07-08T02:50:44.392Z,3.20
2018-07-08T02:51:44.394Z,2.40
2018-07-08T02:52:44.391Z,3.50
2018-07-08T02:53:44.390Z,3.20
2018-07-08T02:54:44.389Z,2.70
2018-07-08T02:55:44.390Z,3.00
2018-07-08T02:56:44.386Z,3.10
2018-07-08T02:57:44.386Z,2.60
2018-07-08T02:58:44.386Z,2.50
2018-07-08T02:59:44.385Z,3.00
2018-07-08T03:00:44.383Z,3.00
2018-07-08T03:01:44.381Z,3.50
2018-07-08T03:02:44.381Z,3.40
2018-07-08T03:03:44.381Z,3.00
2018-07-08T03:04:44.378Z,4.10
2018-07-08T03:05:44.377Z,3.00
2018-07-08T03:06:44.376Z,3.10
2018-07-08T03:07:44.376Z,2.70
2018-07-08T03:08:44.376Z,2.90
2018-07-08T03:09:44.373Z,3.20
2018-07-08T03:10:44.372Z,3.50
2018-07-08T03:11:44.372Z,3.20
2018-07-08T03:12:44.370Z,3.30
2018-07-08T03:13:44.368Z,3.70
2018-07-08T03:14:44.367Z,3.30
2018-07-08T03:15:44.366Z,3.60
2018-07-08T03:16:44.365Z,3.50
2018-07-08T03:17:44.364Z,3.10
2018-07-08T03:18:44.365Z,3.00
2018-07-08T03:19:44.362Z,3.50
2018-07-08T03:20:44.360Z,3.30
2018-07-08T03:21:44.360Z,3.90
2018-07-08T03:22:44.357Z,3.40
2018-07-08T03:23:44.357Z,3.40
2018-07-08T03:24:44.355Z,3.00
2018-07-08T03:25:44.356Z,3.70
2018-07-08T03:26:44.354Z,3.70
2018-07-08T03:27:44.354Z,2.90
2018-07-08T03:28:44.354Z,3.00
2018-07-08T03:29:44.350Z,2.60
2018-07-08T03:30:44.351Z,2.90
2018-07-08T03:31:44.350Z,2.90
2018-07-08T03:32:44.346Z,2.90
2018-07-08T03:33:44.344Z,3.50
2018-07-08T03:34:44.345Z,3.10
2018-07-08T03:35:44.342Z,4.00
2018-07-08T03:36:44.341Z,3.30
2018-07-08T03:37:44.344Z,3.20
2018-07-08T03:38:44.340Z,3.00
2018-07-08T03:39:44.339Z,3.50
2018-07-08T03:40:44.339Z,3.30
2018-07-08T03:41:44.334Z,3.40
2018-07-08T03:42:44.334Z,3.20
2018-07-08T03:43:44.335Z,3.20
2018-07-08T03:44:44.332Z,2.80
2018-07-08T03:45:44.334Z,3.20
2018-07-08T03:46:44.330Z,3.40
2018-07-08T03:47:44.329Z,3.20
2018-07-08T03:48:44.328Z,3.20
2018-07-08T03:49:44.327Z,3.20
2018-07-08T03:50:44.324Z,3.10
2018-07-08T03:51:44.323Z,3.00
2018-07-08T03:52:44.322Z,2.80
2018-07-08T03:53:44.321Z,3.30
2018-07-08T03:54:44.321Z,4.10
2018-07-08T03:55:44.322Z,3.70
2018-07-08T03:56:44.317Z,3.50
2018-07-08T03:57:44.316Z,3.40
2018-07-08T03:58:44.317Z,3.60
2018-07-08T03:59:44.315Z,3.10
2018-07-08T04:00:44.313Z,2.90
2018-07-08T04:01:44.312Z,3.40
2018-07-08T04:02:44.310Z,3.40
2018-07-08T04:03:44.309Z,3.70
2018-07-08T04:04:44.308Z,2.90
2018-07-08T04:05:44.310Z,3.30
2018-07-08T04:06:44.305Z,2.70
2018-07-08T04:07:44.306Z,2.90
2018-07-08T04:08:44.303Z,3.80
2018-07-08T04:09:44.302Z,3.60
2018-07-08T04:10:44.301Z,3.20
2018-07-08T04:11:44.301Z,4.40
2018-07-08T04:12:44.297Z,3.80
2018-07-08T04:13:44.298Z,3.60
2018-07-08T04:14:44.296Z,3.40
2018-07-08T04:15:44.295Z,3.50
2018-07-08T04:16:44.296Z,3.00
2018-07-08T04:17:44.292Z,3.10
2018-07-08T04:18:44.292Z,3.50
2018-07-08T04:19:44.291Z,3.10
2018-07-08T04:20:44.290Z,3.30
2018-07-08T04:21:44.288Z,3.60
2018-07-08T04:22:44.288Z,3.70
2018-07-08T04:23:44.289Z,3.40
2018-07-08T04:24:44.288Z,3.70
2018-07-08T04:25:44.284Z,3.50
2018-07-08T04:26:44.284Z,3.90
2018-07-08T04:27:44.282Z,3.70
2018-07-08T04:28:44.279Z,4.20
2018-07-08T04:29:44.280Z,4.10
2018-07-08T04:30:44.282Z,3.50
2018-07-08T04:31:44.278Z,3.30
2018-07-08T04:32:44.276Z,3.80
2018-07-08T04:33:44.274Z,3.10
2018-07-08T04:34:44.275Z,4.00
2018-07-08T04:35:44.280Z,3.60
2018-07-08T04:36:44.272Z,4.80
2018-07-08T04:37:44.273Z,4.20
2018-07-08T04:38:44.270Z,3.70
2018-07-08T04:39:44.272Z,3.80
2018-07-08T04:40:44.269Z,4.30
2018-07-08T04:41:44.265Z,3.50
2018-07-08T04:42:44.267Z,3.30
2018-07-08T04:43:44.265Z,3.30
2018-07-08T04:44:44.265Z,4.40
2018-07-08T04:45:44.261Z,3.90
2018-07-08T04:46:44.260Z,3.70
2018-07-08T04:47:44.296Z,4.20
2018-07-08T04:48:44.257Z,4.40
2018-07-08T04:49:44.257Z,4.10
2018-07-08T04:50:44.257Z,3.70
2018-07-08T04:51:44.255Z,3.60
2018-07-08T04:52:44.254Z,3.80
2018-07-08T04:53:44.256Z,3.30
2018-07-08T04:54:44.252Z,3.90
2018-07-08T04:55:44.254Z,3.70
2018-07-08T04:56:44.252Z,4.00
2018-07-08T04:57:44.249Z,3.80
2018-07-08T04:58:44.247Z,3.80
2018-07-08T04:59:44.248Z,4.00
2018-07-08T05:00:44.246Z,3.30
2018-07-08T05:01:44.245Z,3.50
2018-07-08T05:02:44.243Z,4.20
2018-07-08T05:03:44.244Z,3.90
2018-07-08T05:04:44.242Z,4.20
2018-07-08T05:05:44.242Z,4.00
2018-07-08T05:06:44.241Z,3.30
2018-07-08T05:07:44.240Z,3.40
2018-07-08T05:08:44.242Z,3.00
2018-07-08T05:09:44.237Z,3.50
2018-07-08T05:10:44.237Z,4.70
2018-07-08T05:11:44.237Z,4.50
2018-07-08T05:12:44.235Z,4.00
2018-07-08T05:13:44.233Z,4.80
2018-07-08T05:14:44.233Z,3.70
2018-07-08T05:15:44.232Z,4.10
2018-07-08T05:16:44.230Z,3.60
2018-07-08T05:17:44.231Z,3.60
2018-07-08T05:18:44.230Z,3.80
2018-07-08T05:19:44.232Z,4.00
2018-07-08T05:20:44.227Z,3.50
2018-07-08T05:21:44.226Z,3.70
2018-07-08T05:22:44.225Z,3.50
2018-07-08T05:23:44.227Z,4.20
2018-07-08T05:24:44.223Z,3.70
2018-07-08T05:25:44.225Z,3.70
2018-07-08T05:26:44.227Z,4.20
2018-07-08T05:27:44.228Z,5.20
2018-07-08T05:28:44.228Z,3.50
2018-07-08T05:29:44.271Z,3.50
2018-07-08T05:30:44.230Z,3.60
2018-07-08T05:31:44.237Z,3.10
2018-07-08T05:32:44.235Z,3.70
2018-07-08T05:33:44.238Z,3.00
2018-07-08T05:34:44.243Z,3.40
2018-07-08T05:35:44.262Z,4.00
2018-07-08T05:36:44.251Z,3.60
2018-07-08T05:37:44.256Z,3.50
2018-07-08T05:38:44.261Z,3.40
2018-07-08T05:39:44.267Z,3.70
2018-07-08T05:40:44.272Z,3.60
2018-07-08T05:41:44.278Z,3.60
2018-07-08T05:42:44.285Z,3.80
2018-07-08T05:43:44.290Z,3.90
2018-07-08T05:44:44.296Z,3.90
2018-07-08T05:45:44.301Z,3.20
2018-07-08T05:46:44.308Z,3.80
2018-07-08T05:47:44.313Z,3.50
2018-07-08T05:48:44.317Z,3.30
2018-07-08T05:49:44.323Z,3.20
2018-07-08T05:50:44.327Z,3.40
2018-07-08T05:51:44.333Z,3.50
2018-07-08T05:52:44.338Z,3.20
2018-07-08T05:53:44.343Z,2.80
2018-07-08T05:54:44.347Z,3.70
2018-07-08T05:55:44.353Z,4.00
2018-07-08T05:56:44.357Z,3.20
2018-07-08T05:57:44.361Z,3.60
2018-07-08T05:58:44.365Z,3.70
2018-07-08T05:59:44.370Z,3.20
2018-07-08T06:00:44.373Z,3.70
2018-07-08T06:01:44.378Z,2.90
2018-07-08T06:02:44.382Z,3.10
2018-07-08T06:03:44.384Z,3.20
2018-07-08T06:04:44.388Z,3.00
2018-07-08T06:05:44.392Z,4.10
2018-07-08T06:06:44.398Z,3.60
2018-07-08T06:07:44.400Z,2.80
2018-07-08T06:08:44.403Z,2.90
2018-07-08T06:09:44.407Z,2.90
2018-07-08T06:10:44.410Z,3.40
2018-07-08T06:11:44.417Z,3.00
2018-07-08T06:12:44.417Z,2.80
2018-07-08T06:13:44.420Z,2.60
2018-07-08T06:14:44.425Z,2.80
2018-07-08T06:15:44.431Z,2.80
2018-07-08T06:16:44.439Z,2.60
2018-07-08T06:17:44.435Z,3.00
2018-07-08T06:18:44.438Z,2.50
2018-07-08T06:19:44.442Z,2.90
2018-07-08T06:20:44.444Z,3.20
2018-07-08T06:21:44.449Z,2.30
2018-07-08T06:22:44.452Z,3.00
2018-07-08T06:23:44.455Z,2.30
2018-07-08T06:24:44.458Z,2.80
2018-07-08T06:25:44.462Z,3.20
2018-07-08T06:26:44.466Z,2.60
2018-07-08T06:27:44.469Z,2.40
2018-07-08T06:28:44.473Z,3.00
2018-07-08T06:29:44.477Z,2.20
2018-07-08T06:30:44.480Z,2.40
2018-07-08T06:31:44.538Z,2.10
2018-07-08T06:32:44.488Z,2.00
2018-07-08T06:33:44.490Z,2.00
2018-07-08T06:34:44.495Z,2.50
2018-07-08T06:35:44.499Z,2.20
2018-07-08T06:36:44.502Z,1.80
2018-07-08T06:37:44.506Z,1.90
2018-07-08T06:38:44.510Z,2.00
2018-07-08T06:39:44.515Z,2.50
2018-07-08T06:40:44.521Z,1.80
2018-07-08T06:41:44.524Z,2.00
2018-07-08T06:42:44.527Z,2.20
2018-07-08T06:43:44.530Z,2.20
2018-07-08T06:44:44.535Z,1.70
2018-07-08T06:45:44.538Z,1.80
2018-07-08T06:46:44.541Z,2.10
2018-07-08T06:47:44.548Z,1.80
2018-07-08T06:48:44.548Z,2.10
2018-07-08T06:49:44.553Z,2.30
2018-07-08T06:50:44.557Z,2.30
2018-07-08T06:51:44.561Z,1.60
2018-07-08T06:52:44.565Z,1.70
2018-07-08T06:53:44.568Z,1.90
2018-07-08T06:54:44.572Z,1.90
2018-07-08T06:55:44.579Z,1.70
2018-07-08T06:56:44.580Z,1.40
2018-07-08T06:57:44.620Z,1.70
2018-07-08T06:58:44.589Z,1.90
2018-07-08T06:59:44.591Z,2.00
2018-07-08T07:00:44.595Z,1.80
2018-07-08T07:01:44.606Z,1.60
2018-07-08T07:02:44.602Z,1.90
2018-07-08T07:03:44.609Z,1.50
2018-07-08T07:04:44.611Z,1.80
2018-07-08T07:05:44.615Z,1.90
2018-07-08T07:06:44.674Z,1.60
2018-07-08T07:07:44.623Z,1.40
2018-07-08T07:08:44.626Z,1.30
2018-07-08T07:09:44.629Z,2.20
2018-07-08T07:10:44.634Z,1.80
2018-07-08T07:11:44.638Z,2.10
2018-07-08T07:12:44.639Z,1.30
2018-07-08T07:13:44.643Z,1.40
2018-07-08T07:14:44.646Z,2.00
2018-07-08T07:15:44.654Z,2.10
2018-07-08T07:16:44.655Z,1.90
2018-07-08T07:17:44.656Z,1.80
2018-07-08T07:18:44.662Z,1.50
2018-07-08T07:19:44.664Z,1.40
2018-07-08T07:20:44.668Z,1.40
2018-07-08T07:21:44.672Z,1.40
2018-07-08T07:22:44.674Z,1.60
2018-07-08T07:23:44.680Z,1.50
2018-07-08T07:24:44.681Z,2.00
2018-07-08T07:25:44.684Z,1.50
2018-07-08T07:26:44.688Z,1.40
2018-07-08T07:27:44.691Z,1.50
2018-07-08T07:28:44.694Z,1.40
2018-07-08T07:29:44.696Z,1.90
2018-07-08T07:30:44.700Z,1.40
2018-07-08T07:31:44.703Z,1.40
2018-07-08T07:32:44.705Z,1.70
2018-07-08T07:33:44.707Z,1.70
2018-07-08T07:34:44.712Z,2.30
2018-07-08T07:35:44.717Z,1.80
2018-07-08T07:36:44.718Z,1.60
2018-07-08T07:37:44.723Z,1.00
2018-07-08T07:38:44.727Z,1.50
2018-07-08T07:39:44.730Z,0.90
2018-07-08T07:40:44.736Z,1.30
2018-07-08T07:41:44.744Z,1.00
2018-07-08T07:42:44.748Z,1.00
2018-07-08T07:43:44.756Z,1.10
2018-07-08T07:44:44.762Z,1.00
2018-07-08T07:45:44.770Z,0.90
2018-07-08T07:46:44.780Z,0.90
2018-07-08T07:47:44.788Z,1.00
2018-07-08T07:48:44.794Z,0.90
2018-07-08T07:49:44.804Z,0.70
2018-07-08T07:50:44.814Z,0.90
2018-07-08T07:51:44.824Z,0.90
2018-07-08T07:52:44.834Z,0.90
2018-07-08T07:53:44.844Z,0.90
2018-07-08T07:54:44.855Z,0.80
2018-07-08T07:55:44.867Z,0.70
2018-07-08T07:56:44.878Z,0.90
2018-07-08T07:57:44.893Z,0.90
2018-07-08T07:58:44.908Z,1.00
2018-07-08T07:59:44.917Z,0.90
2018-07-08T08:00:44.928Z,0.80
2018-07-08T08:01:44.941Z,0.90
2018-07-08T08:02:44.954Z,0.90
2018-07-08T08:03:44.970Z,0.80
2018-07-08T08:04:44.981Z,0.90
2018-07-08T08:05:45.001Z,1.00
2018-07-08T08:06:45.012Z,0.90
2018-07-08T08:07:45.023Z,1.10
2018-07-08T08:08:45.037Z,0.90
2018-07-08T08:09:45.052Z,1.20
2018-07-08T08:10:45.129Z,0.90
2018-07-08T08:11:45.081Z,0.90
2018-07-08T08:12:45.094Z,0.90
2018-07-08T08:13:45.155Z,0.80
2018-07-08T08:14:45.124Z,0.70
2018-07-08T08:15:45.138Z,1.00
2018-07-08T08:16:45.154Z,0.50
2018-07-08T08:17:45.167Z,1.00
2018-07-08T08:18:45.182Z,0.70
2018-07-08T08:19:45.197Z,0.70
2018-07-08T08:20:45.211Z,0.50
2018-07-08T08:21:45.227Z,0.60
2018-07-08T08:22:45.241Z,0.40
2018-07-08T08:23:45.256Z,0.60
2018-07-08T08:24:45.269Z,0.40
2018-07-08T08:25:45.286Z,0.50
2018-07-08T08:26:45.366Z,0.70
2018-07-08T08:27:45.313Z,0.70
2018-07-08T08:28:45.328Z,0.50
2018-07-08T08:29:45.343Z,0.70
2018-07-08T08:30:45.358Z,0.70
2018-07-08T08:31:45.374Z,0.70
2018-07-08T08:32:45.427Z,0.80
2018-07-08T08:33:45.403Z,0.70
2018-07-08T08:34:45.417Z,0.60
2018-07-08T08:35:45.432Z,0.60
2018-07-08T08:36:45.448Z,0.70
2018-07-08T08:37:45.466Z,0.80
2018-07-08T08:38:45.478Z,0.70
2018-07-08T08:39:45.495Z,0.70
2018-07-08T08:40:45.508Z,0.80
2018-07-08T08:41:45.524Z,0.60
2018-07-08T08:42:45.538Z,0.50
2018-07-08T08:43:45.554Z,0.60
2018-07-08T08:44:45.567Z,0.70
2018-07-08T08:45:45.581Z,0.60
2018-07-08T08:46:45.598Z,0.60
2018-07-08T08:47:45.613Z,0.60
2018-07-08T08:48:45.630Z,0.60
2018-07-08T08:49:45.642Z,0.70
2018-07-08T08:50:45.660Z,0.60
2018-07-08T08:51:45.673Z,0.60
2018-07-08T08:52:45.687Z,0.50
2018-07-08T08:53:45.704Z,0.60
2018-07-08T08:54:45.717Z,0.60
2018-07-08T08:55:45.734Z,0.80
2018-07-08T08:56:45.751Z,0.70
2018-07-08T08:57:45.764Z,0.60
2018-07-08T08:58:45.780Z,0.70
2018-07-08T08:59:45.797Z,0.50
2018-07-08T09:00:45.810Z,0.60
2018-07-08T09:01:45.826Z,0.40
2018-07-08T09:02:45.843Z,0.60
2018-07-08T09:03:45.866Z,0.60
2018-07-08T09:04:45.873Z,0.60
2018-07-08T09:05:45.887Z,0.50
2018-07-08T09:06:45.901Z,0.60
2018-07-08T09:07:45.917Z,0.60
2018-07-08T09:08:45.932Z,0.80
2018-07-08T09:09:45.954Z,0.60
2018-07-08T09:10:46.003Z,0.60
2018-07-08T09:11:45.979Z,0.70
2018-07-08T09:12:45.994Z,0.70
2018-07-08T09:13:46.010Z,0.60
2018-07-08T09:14:46.026Z,0.50
2018-07-08T09:15:46.043Z,0.50
2018-07-08T09:16:46.057Z,0.60
2018-07-08T09:17:46.077Z,0.70
2018-07-08T09:18:46.089Z,0.60
2018-07-08T09:19:46.103Z,0.50
2018-07-08T09:20:46.119Z,0.40
2018-07-08T09:21:46.137Z,0.40
2018-07-08T09:22:46.151Z,0.50
2018-07-08T09:23:46.177Z,0.50
2018-07-08T09:24:46.181Z,0.60
2018-07-08T09:25:46.196Z,0.50
2018-07-08T09:26:46.211Z,1.20
2018-07-08T09:27:46.228Z,0.50
2018-07-08T09:28:46.244Z,0.60
2018-07-08T09:29:46.259Z,0.40
2018-07-08T09:30:46.275Z,0.50
2018-07-08T09:31:46.291Z,0.50
2018-07-08T09:32:46.303Z,0.50
2018-07-08T09:33:46.320Z,0.40
2018-07-08T09:34:46.336Z,0.50
2018-07-08T09:35:46.351Z,0.60
2018-07-08T09:36:46.366Z,0.50
2018-07-08T09:37:46.382Z,0.60
2018-07-08T09:38:46.459Z,0.70
2018-07-08T09:39:46.413Z,0.50
2018-07-08T09:40:46.429Z,0.50
2018-07-08T09:41:46.443Z,0.60
2018-07-08T09:42:46.460Z,0.80
2018-07-08T09:43:46.476Z,0.50
2018-07-08T09:44:46.492Z,0.60
2018-07-08T09:45:46.506Z,0.50
2018-07-08T09:46:46.520Z,0.50
2018-07-08T09:47:46.541Z,0.50
2018-07-08T09:48:46.555Z,0.40
2018-07-08T09:49:46.570Z,0.60
2018-07-08T09:50:46.585Z,0.50
2018-07-08T09:51:46.602Z,0.60
2018-07-08T09:52:46.615Z,0.40
2018-07-08T09:53:46.631Z,0.70
2018-07-08T09:54:46.647Z,0.60
2018-07-08T09:55:46.662Z,0.50
2018-07-08T09:56:46.677Z,0.40
2018-07-08T09:57:46.692Z,0.50
2018-07-08T09:58:46.709Z,0.60
2018-07-08T09:59:46.726Z,0.50
2018-07-08T10:00:46.739Z,0.50
2018-07-08T10:01:46.754Z,0.50
2018-07-08T10:02:46.769Z,0.50
2018-07-08T10:03:46.785Z,0.50
2018-07-08T10:04:46.809Z,0.60
2018-07-08T10:05:46.814Z,0.80
2018-07-08T10:06:46.831Z,0.70
2018-07-08T10:07:46.846Z,0.50
2018-07-08T10:08:46.937Z,0.70
2018-07-08T10:09:46.875Z,0.50
2018-07-08T10:10:46.922Z,0.60
2018-07-08T10:11:46.906Z,0.60
2018-07-08T10:12:46.920Z,0.50
2018-07-08T10:13:47.007Z,0.70
2018-07-08T10:14:46.951Z,0.60
2018-07-08T10:15:46.966Z,0.60
2018-07-08T10:16:46.980Z,0.50
2018-07-08T10:17:47.011Z,0.50
2018-07-08T10:18:47.012Z,0.80
2018-07-08T10:19:47.138Z,0.70
2018-07-08T10:20:47.041Z,0.50
2018-07-08T10:21:47.057Z,0.70
2018-07-08T10:22:47.072Z,0.70
2018-07-08T10:23:47.086Z,0.70
2018-07-08T10:24:47.100Z,0.50
2018-07-08T10:25:47.116Z,0.50
2018-07-08T10:26:47.132Z,0.60
2018-07-08T10:27:47.146Z,0.70
2018-07-08T10:28:47.160Z,0.60
2018-07-08T10:29:47.176Z,0.70
2018-07-08T10:30:47.192Z,0.60
2018-07-08T10:31:47.204Z,0.50
2018-07-08T10:32:47.220Z,0.60
2018-07-08T10:33:47.233Z,0.60
2018-07-08T10:34:47.248Z,0.60
2018-07-08T10:35:47.264Z,0.60
2018-07-08T10:36:47.279Z,0.70
2018-07-08T10:37:47.294Z,0.60
2018-07-08T10:38:47.307Z,0.60
2018-07-08T10:39:47.320Z,0.70
2018-07-08T10:40:47.339Z,0.80
2018-07-08T10:41:47.349Z,0.70
2018-07-08T10:42:47.367Z,0.80
2018-07-08T10:43:47.379Z,0.70
2018-07-08T10:44:47.393Z,0.60
2018-07-08T10:45:47.410Z,0.70
2018-07-08T10:46:47.421Z,0.60
2018-07-08T10:47:47.435Z,0.60
2018-07-08T10:48:47.450Z,0.70
2018-07-08T10:49:47.465Z,0.70
2018-07-08T10:50:47.479Z,0.60
2018-07-08T10:51:47.494Z,0.70
2018-07-08T10:52:47.508Z,0.80
2018-07-08T10:53:47.521Z,0.80
2018-07-08T10:54:47.536Z,0.90
2018-07-08T10:55:47.550Z,0.80
2018-07-08T10:56:47.562Z,0.80
2018-07-08T10:57:47.578Z,0.70
2018-07-08T10:58:47.591Z,0.60
2018-07-08T10:59:47.606Z,0.70
2018-07-08T11:00:47.619Z,0.90
2018-07-08T11:01:47.682Z,0.70
2018-07-08T11:02:47.649Z,0.60
2018-07-08T11:03:47.664Z,0.80
2018-07-08T11:04:47.675Z,0.90
2018-07-08T11:05:47.690Z,0.70
2018-07-08T11:06:47.704Z,0.90
2018-07-08T11:07:47.718Z,0.80
2018-07-08T11:08:47.731Z,0.60
2018-07-08T11:09:47.743Z,0.60
2018-07-08T11:10:47.784Z,0.80
2018-07-08T11:11:47.773Z,1.20
2018-07-08T11:12:47.785Z,0.70
2018-07-08T11:13:47.797Z,0.70
2018-07-08T11:14:47.812Z,0.70
2018-07-08T11:15:47.825Z,0.80
2018-07-08T11:16:47.837Z,0.70
2018-07-08T11:17:47.851Z,0.70
2018-07-08T11:18:47.862Z,0.70
2018-07-08T11:19:47.877Z,0.60
2018-07-08T11:20:47.910Z,0.60
2018-07-08T11:21:47.901Z,0.80
2018-07-08T11:22:47.913Z,0.70
2018-07-08T11:23:47.926Z,1.00
2018-07-08T11:24:47.937Z,0.70
2018-07-08T11:25:47.949Z,0.80
2018-07-08T11:26:47.962Z,0.70
2018-07-08T11:27:47.975Z,0.90
2018-07-08T11:28:47.987Z,0.80
2018-07-08T11:29:47.998Z,1.30
2018-07-08T11:30:48.010Z,0.70
2018-07-08T11:31:48.023Z,0.70
2018-07-08T11:32:48.035Z,0.80
2018-07-08T11:33:48.044Z,0.60
2018-07-08T11:34:48.054Z,0.70
2018-07-08T11:35:48.066Z,0.70
2018-07-08T11:36:48.077Z,0.70
2018-07-08T11:37:48.089Z,0.80
2018-07-08T11:38:48.098Z,1.00
2018-07-08T11:39:48.112Z,0.90
2018-07-08T11:40:48.122Z,0.70
2018-07-08T11:41:48.131Z,0.70
2018-07-08T11:42:48.183Z,0.80
2018-07-08T11:43:48.153Z,0.80
2018-07-08T11:44:48.166Z,0.80
2018-07-08T11:45:48.174Z,0.90
2018-07-08T11:46:48.185Z,1.00
2018-07-08T11:47:48.194Z,0.80
2018-07-08T11:48:48.205Z,0.80
2018-07-08T11:49:48.221Z,0.80
2018-07-08T11:50:48.226Z,0.80
2018-07-08T11:51:48.234Z,0.80
2018-07-08T11:52:48.245Z,0.90
2018-07-08T11:53:48.255Z,0.80
2018-07-08T11:54:48.269Z,0.70
2018-07-08T11:55:48.274Z,0.70
2018-07-08T11:56:48.282Z,0.80
2018-07-08T11:57:48.293Z,0.90
2018-07-08T11:58:48.303Z,0.80
2018-07-08T11:59:48.313Z,0.90
2018-07-08T12:00:48.321Z,0.90
2018-07-08T12:01:48.333Z,1.10
2018-07-08T12:02:48.348Z,1.00
2018-07-08T12:03:48.351Z,1.00
2018-07-08T12:04:48.359Z,0.80
2018-07-08T12:05:48.369Z,0.80
2018-07-08T12:06:48.408Z,1.00
2018-07-08T12:07:48.393Z,0.80
2018-07-08T12:08:48.431Z,0.80
2018-07-08T12:09:48.406Z,0.90
2018-07-08T12:10:48.415Z,0.80
2018-07-08T12:11:48.426Z,0.90
2018-07-08T12:12:48.433Z,0.80
2018-07-08T12:13:48.442Z,0.90
2018-07-08T12:14:48.454Z,0.90
2018-07-08T12:15:48.461Z,0.80
2018-07-08T12:16:48.468Z,1.00
2018-07-08T12:17:48.479Z,0.90
2018-07-08T12:18:48.490Z,0.90
2018-07-08T12:19:48.502Z,0.80
2018-07-08T12:20:48.506Z,0.80
2018-07-08T12:21:48.515Z,0.90
2018-07-08T12:22:48.525Z,1.00
2018-07-08T12:23:48.534Z,0.90
2018-07-08T12:24:48.544Z,0.90
2018-07-08T12:25:48.550Z,1.00
2018-07-08T12:26:48.560Z,0.90
2018-07-08T12:27:48.573Z,0.80
2018-07-08T12:28:48.578Z,0.70
2018-07-08T12:29:48.591Z,1.00
2018-07-08T12:30:48.595Z,0.80
2018-07-08T12:31:48.605Z,0.90
2018-07-08T12:32:48.613Z,0.90
2018-07-08T12:33:48.622Z,1.00
2018-07-08T12:34:48.632Z,0.80
2018-07-08T12:35:48.641Z,0.80
2018-07-08T12:36:48.662Z,0.80
2018-07-08T12:37:48.658Z,0.90
2018-07-08T12:38:48.668Z,1.00
2018-07-08T12:39:48.686Z,0.90
2018-07-08T12:40:48.684Z,1.30
2018-07-08T12:41:48.694Z,0.80
2018-07-08T12:42:48.703Z,1.40
2018-07-08T12:43:48.712Z,0.90
2018-07-08T12:44:48.842Z,0.90
2018-07-08T12:45:48.730Z,1.00
2018-07-08T12:46:48.739Z,0.80
2018-07-08T12:47:48.748Z,0.90
2018-07-08T12:48:48.756Z,1.40
2018-07-08T12:49:48.766Z,1.10
2018-07-08T12:50:48.773Z,0.80
2018-07-08T12:51:48.784Z,0.80
2018-07-08T12:52:48.791Z,0.70
2018-07-08T12:53:48.800Z,1.00
2018-07-08T12:54:48.808Z,0.90
2018-07-08T12:55:48.817Z,0.80
2018-07-08T12:56:48.826Z,1.00
2018-07-08T12:57:48.835Z,1.40
2018-07-08T12:58:48.899Z,1.10
2018-07-08T12:59:48.854Z,0.90
2018-07-08T13:00:48.866Z,1.10
2018-07-08T13:01:48.870Z,0.90
2018-07-08T13:02:48.878Z,0.90
2018-07-08T13:03:48.892Z,0.90
2018-07-08T13:04:48.895Z,0.80
2018-07-08T13:05:48.905Z,1.00
2018-07-08T13:06:48.913Z,1.10
2018-07-08T13:07:48.924Z,1.00
2018-07-08T13:08:48.929Z,0.90
2018-07-08T13:09:48.938Z,1.00
2018-07-08T13:10:48.947Z,1.20
2018-07-08T13:11:48.955Z,0.70
2018-07-08T13:12:48.963Z,0.90
2018-07-08T13:13:48.972Z,1.10
2018-07-08T13:14:48.982Z,0.80
2018-07-08T13:15:48.990Z,0.90
2018-07-08T13:16:48.998Z,1.00
2018-07-08T13:17:49.010Z,0.90
2018-07-08T13:18:49.017Z,1.10